Time;durP1;ratioP1;P1;durP2;ratioP2;P2;SDS_P1;SDS_P2;PMS_P1;PMS_P2;Temp;Humidity;BMP_temperature;BMP_pressure;BME280_temperature;BME280_humidity;BME280_pressure;Samples;Min_cycle;Max_cycle;Signal;HPM_P1;HPM_P2
2022/05/27 00:05:18;;;;;;;1.1;2.5;;;;;;;-133;71.8;65240;;;;
2022/05/27 00:16:18;;;;;;;1.3;3.1;;;;;;;-133;72.8;65230;;;;
2022/05/27 00:26:18;;;;;;;1.3;3.1;;;;;;;-133;73.3;65230;;;;
2022/05/27 00:36:18;;;;;;;1.3;3.1;;;;;;;-133;73.8;65230;;;;
2022/05/27 00:47:18;;;;;;;1.7;3.8;;;;;;;-133;73.7;65230;;;;
2022/05/27 00:58:18;;;;;;;1.7;3.8;;;;;;;-133;74.3;65230;;;;
2022/05/27 01:08:18;;;;;;;1.7;3.8;;;;;;;-133;73.5;65220;;;;
2022/05/27 01:20:22;;;;;;;1.5;3.8;;;;;;;-133;72.7;65230;;;;
2022/05/27 01:29:18;;;;;;;1.5;3.8;;;;;;;-133;72.5;65230;;;;
2022/05/27 01:39:18;;;;;;;1.5;3.8;;;;;;;-133;73;65230;;;;
2022/05/27 01:50:18;;;;;;;1.6;4.9;;;;;;;-133;73.2;65230;;;;
2022/05/27 02:01:18;;;;;;;1.6;4.9;;;;;;;-133;73;65220;;;;
2022/05/27 02:12:18;;;;;;;1.6;4.9;;;;;;;-133;72.7;65220;;;;
2022/05/27 02:23:18;;;;;;;1.1;2.9;;;;;;;-133;73.3;65230;;;;
2022/05/27 02:43:18;;;;;;;1.5;3.4;;;;;;;-133;74.3;65220;;;;
2022/05/27 02:53:18;;;;;;;1.5;3.4;;;;;;;-133;74.7;65220;;;;
2022/05/27 03:04:18;;;;;;;1.5;3.4;;;;;;;-133;74.7;65230;;;;
2022/05/27 03:14:18;;;;;;;1.2;3;;;;;;;-133;74.3;65220;;;;
2022/05/27 03:25:18;;;;;;;1.2;3;;;;;;;-133;74.1;65220;;;;
2022/05/27 03:35:18;;;;;;;1.2;3;;;;;;;-133;74.7;65220;;;;
2022/05/27 03:45:18;;;;;;;1.1;2.5;;;;;;;-133;73.5;65220;;;;
2022/05/27 03:56:18;;;;;;;1.1;2.5;;;;;;;-133;73.4;65220;;;;
2022/05/27 04:07:18;;;;;;;1.1;2.5;;;;;;;-133;72.6;65220;;;;
2022/05/27 04:18:18;;;;;;;1.1;3.5;;;;;;;-133;72.2;65220;;;;
2022/05/27 04:28:18;;;;;;;1.1;3.5;;;;;;;-133;71.9;65220;;;;
2022/05/27 04:39:18;;;;;;;1.1;3.5;;;;;;;-133;71.6;65220;;;;
2022/05/27 04:50:18;;;;;;;0.9;2.6;;;;;;;-133;70.8;65220;;;;
2022/05/27 05:00:18;;;;;;;0.9;2.6;;;;;;;-133;69.9;65220;;;;
2022/05/27 05:11:18;;;;;;;0.9;2.6;;;;;;;-133;68;65220;;;;
2022/05/27 05:22:18;;;;;;;1;2.3;;;;;;;-133;66.7;65220;;;;
2022/05/27 05:32:18;;;;;;;1;2.3;;;;;;;-133;64.3;65220;;;;
2022/05/27 05:43:18;;;;;;;1.4;3.5;;;;;;;-133;65.1;65210;;;;
2022/05/27 05:53:18;;;;;;;1.4;3.5;;;;;;;-133;63.1;65220;;;;
2022/05/27 06:03:18;;;;;;;1.4;3.5;;;;;;;-133;61.4;65220;;;;
2022/05/27 06:14:18;;;;;;;1.4;3.6;;;;;;;-133;61;65220;;;;
2022/05/27 06:25:18;;;;;;;1.4;3.6;;;;;;;-133;61.4;65210;;;;
2022/05/27 06:35:18;;;;;;;1.4;3.6;;;;;;;-133;60;65210;;;;
2022/05/27 06:45:18;;;;;;;1.6;4.9;;;;;;;-133;59;65210;;;;
2022/05/27 06:55:18;;;;;;;1.6;4.9;;;;;;;-133;55.5;65210;;;;
2022/05/27 07:06:18;;;;;;;1.6;4.9;;;;;;;-133;53;65210;;;;
2022/05/27 07:16:18;;;;;;;1.2;4.7;;;;;;;-133;54.6;65210;;;;
2022/05/27 07:27:18;;;;;;;1.2;4.7;;;;;;;-133;53.4;65220;;;;
2022/05/27 07:37:18;;;;;;;1.2;4.7;;;;;;;-133;52.2;65210;;;;
2022/05/27 07:47:18;;;;;;;0.8;2.5;;;;;;;-133;51.9;65220;;;;
2022/05/27 07:58:18;;;;;;;0.8;2.5;;;;;;;-133;51.4;65210;;;;
2022/05/27 08:08:18;;;;;;;0.8;2.5;;;;;;;-133;51;65210;;;;
2022/05/27 08:18:18;;;;;;;1.3;4.4;;;;;;;-133;52.1;65210;;;;
2022/05/27 08:29:18;;;;;;;1.3;4.4;;;;;;;-133;48.7;65210;;;;
2022/05/27 08:40:18;;;;;;;1.3;4.4;;;;;;;-133;47.1;65210;;;;
2022/05/27 08:50:18;;;;;;;1.2;2.9;;;;;;;-133;45.9;65210;;;;
2022/05/27 09:00:18;;;;;;;1.2;2.9;;;;;;;-133;44.8;65210;;;;
2022/05/27 09:11:18;;;;;;;1.2;2.9;;;;;;;-133;47.9;65210;;;;
2022/05/27 09:21:18;;;;;;;0.9;3.9;;;;;;;-133;46.9;65220;;;;
2022/05/27 09:31:18;;;;;;;0.9;3.9;;;;;;;-133;48.2;65220;;;;
2022/05/27 09:41:23;;;;;;;0.9;3.9;;;;;;;-133;45.9;65220;;;;
2022/05/27 09:52:18;;;;;;;1.5;3.7;;;;;;;-133;46.3;65210;;;;
2022/05/27 10:03:18;;;;;;;1.5;3.7;;;;;;;-133;46.4;65210;;;;
2022/05/27 10:13:18;;;;;;;1.2;3.8;;;;;;;-133;46.5;65220;;;;
2022/05/27 10:24:18;;;;;;;1.2;3.8;;;;;;;-133;46.3;65210;;;;
2022/05/27 10:35:18;;;;;;;1.2;3.8;;;;;;;-133;45.5;65220;;;;
2022/05/27 10:45:19;;;;;;;1.4;5.6;;;;;;;-133;46.1;65220;;;;
2022/05/27 10:55:18;;;;;;;1.4;5.6;;;;;;;-133;45.9;65220;;;;
2022/05/27 11:06:18;;;;;;;1.4;5.6;;;;;;;-133;47.9;65220;;;;
2022/05/27 11:16:18;;;;;;;1.5;4.4;;;;;;;-133;48.7;65220;;;;
2022/05/27 11:27:18;;;;;;;1.5;4.4;;;;;;;-133;49.7;65220;;;;
2022/05/27 11:37:18;;;;;;;1.5;4.4;;;;;;;-133;47.9;65220;;;;
2022/05/27 11:47:18;;;;;;;1.8;5.1;;;;;;;-133;49;65220;;;;
2022/05/27 11:58:18;;;;;;;1.8;5.1;;;;;;;-133;50.6;65220;;;;
2022/05/27 12:09:18;;;;;;;1.8;5.1;;;;;;;-133;50.2;65230;;;;
2022/05/27 12:20:18;;;;;;;2.4;8.3;;;;;;;-133;49.1;65220;;;;
2022/05/27 12:30:18;;;;;;;2.4;8.3;;;;;;;-133;48.7;65220;;;;
2022/05/27 12:40:18;;;;;;;2.4;8.3;;;;;;;-133;49.3;65230;;;;
2022/05/27 12:50:18;;;;;;;1.5;4.6;;;;;;;-133;50.5;65230;;;;
2022/05/27 13:01:18;;;;;;;1.5;4.6;;;;;;;-133;52.9;65230;;;;
2022/05/27 13:12:19;;;;;;;1.5;4.6;;;;;;;-133;54.8;65230;;;;
2022/05/27 13:23:18;;;;;;;1.7;6.4;;;;;;;-133;68;65230;;;;
2022/05/27 13:33:18;;;;;;;1.7;6.4;;;;;;;-133;81.3;65240;;;;
2022/05/27 13:44:18;;;;;;;1.4;4;;;;;;;-133;85.9;65240;;;;
2022/05/27 13:54:18;;;;;;;1.4;4;;;;;;;-133;87.7;65230;;;;
2022/05/27 14:04:18;;;;;;;1.4;4;;;;;;;-133;91.2;65240;;;;
2022/05/27 14:15:18;;;;;;;1.2;3.1;;;;;;;-133;92;65230;;;;
2022/05/27 14:25:18;;;;;;;1.2;3.1;;;;;;;-133;92.1;65230;;;;
2022/05/27 14:35:18;;;;;;;1.2;3.1;;;;;;;-133;93.5;65230;;;;
2022/05/27 14:45:18;;;;;;;1.3;3.2;;;;;;;-133;94.3;65230;;;;
2022/05/27 14:55:18;;;;;;;1.3;3.2;;;;;;;-133;94.1;65230;;;;
2022/05/27 15:06:19;;;;;;;1.3;3.2;;;;;;;-133;93.8;65230;;;;
2022/05/27 15:16:18;;;;;;;2.2;4.2;;;;;;;-133;94.5;65240;;;;
2022/05/27 15:37:18;;;;;;;2.2;4.2;;;;;;;-133;94.3;65230;;;;
2022/05/27 15:47:18;;;;;;;1.9;4;;;;;;;-133;94.1;65240;;;;
2022/05/27 15:57:18;;;;;;;1.9;4;;;;;;;-133;94.2;65230;;;;
2022/05/27 16:08:18;;;;;;;1.9;4;;;;;;;-133;95.3;65240;;;;
2022/05/27 16:19:18;;;;;;;1.9;4;;;;;;;-133;95;65230;;;;
2022/05/27 16:29:20;;;;;;;1.9;4;;;;;;;-133;96.4;65240;;;;
2022/05/27 16:40:18;;;;;;;1.9;4;;;;;;;-133;97.6;65230;;;;
2022/05/27 16:50:18;;;;;;;2.3;4.3;;;;;;;-133;98.5;65230;;;;
2022/05/27 17:01:18;;;;;;;2.3;4.3;;;;;;;-133;97.8;65230;;;;
2022/05/27 17:12:18;;;;;;;2.3;4.3;;;;;;;-133;98.1;65230;;;;
2022/05/27 17:23:18;;;;;;;3.2;5.9;;;;;;;-133;97.7;65230;;;;
2022/05/27 17:34:18;;;;;;;3.2;5.9;;;;;;;-133;98.2;65230;;;;
2022/05/27 17:44:18;;;;;;;3.3;5.5;;;;;;;-133;97.9;65240;;;;
2022/05/27 17:55:18;;;;;;;3.3;5.5;;;;;;;-133;97.5;65230;;;;
2022/05/27 18:05:18;;;;;;;3.3;5.5;;;;;;;-133;97.3;65240;;;;
2022/05/27 18:15:18;;;;;;;3.4;7.5;;;;;;;-133;97.7;65230;;;;
2022/05/27 18:26:18;;;;;;;3.4;7.5;;;;;;;-133;97.7;65230;;;;
2022/05/27 18:37:18;;;;;;;3.4;7.5;;;;;;;-133;95.9;65230;;;;
2022/05/27 18:47:19;;;;;;;2.9;4.9;;;;;;;-133;95.6;65230;;;;
2022/05/27 18:58:18;;;;;;;2.9;4.9;;;;;;;-133;95.3;65230;;;;
2022/05/27 19:08:18;;;;;;;2.9;4.9;;;;;;;-133;95.7;65230;;;;
2022/05/27 19:30:18;;;;;;;3;7;;;;;;;-133;96.6;65230;;;;
2022/05/27 19:40:18;;;;;;;3;7;;;;;;;-133;97.3;65230;;;;
2022/05/27 19:51:18;;;;;;;3.5;6.6;;;;;;;-133;97.1;65220;;;;
2022/05/27 20:12:18;;;;;;;3.5;6.6;;;;;;;-133;96.2;65220;;;;
2022/05/27 20:23:18;;;;;;;3;4.8;;;;;;;-133;96.7;65220;;;;
2022/05/27 20:33:18;;;;;;;3;4.8;;;;;;;-133;97.3;65220;;;;
2022/05/27 20:44:18;;;;;;;2.2;6.1;;;;;;;-133;97.5;65220;;;;
2022/05/27 20:55:18;;;;;;;2.2;6.1;;;;;;;-133;97.7;65220;;;;
2022/05/27 21:06:18;;;;;;;2.2;6.1;;;;;;;-133;98.5;65220;;;;
2022/05/27 21:16:18;;;;;;;3.1;5.8;;;;;;;-133;99.3;65220;;;;
2022/05/27 21:27:18;;;;;;;3.1;5.8;;;;;;;-133;99.6;65220;;;;
2022/05/27 21:37:18;;;;;;;3.1;5.8;;;;;;;-133;99.6;65230;;;;
2022/05/27 21:48:18;;;;;;;3.1;6.2;;;;;;;-133;99.3;65220;;;;
2022/05/27 21:59:18;;;;;;;3.1;6.2;;;;;;;-133;99.2;65220;;;;
2022/05/27 22:20:18;;;;;;;2.6;4.7;;;;;;;-133;99.4;65230;;;;
2022/05/27 22:30:18;;;;;;;2.6;4.7;;;;;;;-133;100;65220;;;;
2022/05/27 22:41:18;;;;;;;2.6;4.7;;;;;;;-133;100;65220;;;;
2022/05/27 22:51:18;;;;;;;2.9;5.2;;;;;;;-133;100;65220;;;;
2022/05/27 23:01:20;;;;;;;;;;;;;;;-133;;;;;;
2022/05/27 23:11:18;;;;;;;2.9;5.2;;;;;;;-133;100;65220;;;;
2022/05/27 23:22:18;;;;;;;3.6;6.4;;;;;;;-133;98.5;65220;;;;
2022/05/27 23:33:18;;;;;;;3.6;6.4;;;;;;;-133;98.7;65210;;;;
2022/05/27 23:44:18;;;;;;;5.6;11.7;;;;;;;-133;98.9;65220;;;;
2022/05/27 23:54:18;;;;;;;5.6;11.7;;;;;;;-133;99.3;65220;;;;
